Time;durP1;ratioP1;P1;durP2;ratioP2;P2;SDS_P1;SDS_P2;PMS_P1;PMS_P2;Temp;Humidity;BMP_temperature;BMP_pressure;BME280_temperature;BME280_humidity;BME280_pressure;Samples;Min_cycle;Max_cycle;Signal;HPM_P1;HPM_P2
2023/08/29 00:01:29;;;;;;;2.50;1.50;;;;;;;;;;5112811;28;20403;-69
2023/08/29 00:03:58;;;;;;;2.40;1.80;;;;;;;;;;5111824;28;20043;-69
2023/08/29 00:06:26;;;;;;;2.88;1.73;;;;;;;;;;5111826;28;20413;-68
2023/08/29 00:08:53;;;;;;;2.58;1.70;;;;;;;;;;5112103;28;20513;-69
2023/08/29 00:11:21;;;;;;;2.47;1.80;;;;;;;;;;5111169;28;20062;-69
2023/08/29 00:13:48;;;;;;;2.63;1.80;;;;;;;;;;5112154;28;20051;-68
2023/08/29 00:16:16;;;;;;;2.47;1.60;;;;;;;;;;5111055;28;20134;-68
2023/08/29 00:18:44;;;;;;;4.05;1.75;;;;;;;;;;5112320;28;20048;-69
2023/08/29 00:21:11;;;;;;;3.35;1.88;;;;;;;;;;5092441;28;20052;-68
2023/08/29 00:23:40;;;;;;;1.92;1.65;;;;;;;;;;5094214;28;20491;-68
2023/08/29 00:26:07;;;;;;;3.20;1.90;;;;;;;;;;5111119;28;20040;-69
2023/08/29 00:28:34;;;;;;;3.25;1.83;;;;;;;;;;5108573;28;20540;-69
2023/08/29 00:31:02;;;;;;;2.58;1.90;;;;;;;;;;5111216;28;20043;-69
2023/08/29 00:33:29;;;;;;;2.28;1.77;;;;;;;;;;5112159;28;20501;-68
2023/08/29 00:35:56;;;;;;;4.00;1.85;;;;;;;;;;5110888;28;20058;-69
2023/08/29 00:38:23;;;;;;;2.22;1.80;;;;;;;;;;5110006;28;20054;-69
2023/08/29 00:40:52;;;;;;;2.78;1.90;;;;;;;;;;5109263;28;20577;-69
2023/08/29 00:43:19;;;;;;;2.85;1.83;;;;;;;;;;5093673;28;20407;-68
2023/08/29 00:45:48;;;;;;;2.40;1.77;;;;;;;;;;5111438;28;20051;-68
2023/08/29 00:48:15;;;;;;;4.93;1.95;;;;;;;;;;5109400;28;20043;-68
2023/08/29 00:50:43;;;;;;;3.03;1.92;;;;;;;;;;5111688;28;20043;-69
2023/08/29 00:53:11;;;;;;;3.78;1.80;;;;;;;;;;5110984;28;20057;-69
2023/08/29 00:55:38;;;;;;;4.30;1.88;;;;;;;;;;5110762;28;20047;-68
2023/08/29 00:58:07;;;;;;;5.22;1.80;;;;;;;;;;5109854;28;20040;-69
2023/08/29 01:00:34;;;;;;;2.53;1.80;;;;;;;;;;5110766;28;20043;-69
2023/08/29 01:03:02;;;;;;;2.30;1.60;;;;;;;;;;5111462;28;20047;-69
2023/08/29 01:05:29;;;;;;;3.03;1.52;;;;;;;;;;5110512;28;20043;-69
2023/08/29 01:07:59;;;;;;;3.67;1.73;;;;;;;;;;5110861;28;20056;-69
2023/08/29 01:10:30;;;;;;;3.50;1.50;;;;;;;;;;5108618;28;20086;-69
2023/08/29 01:12:59;;;;;;;2.13;1.58;;;;;;;;;;5110227;28;20047;-69
2023/08/29 01:15:30;;;;;;;1.92;1.65;;;;;;;;;;5089602;28;20060;-68
2023/08/29 01:18:00;;;;;;;2.08;1.58;;;;;;;;;;5110494;28;20052;-69
2023/08/29 01:20:28;;;;;;;2.45;1.60;;;;;;;;;;5111063;28;20047;-69
2023/08/29 01:22:59;;;;;;;3.45;1.80;;;;;;;;;;5110435;28;20487;-69
2023/08/29 01:25:28;;;;;;;3.05;1.80;;;;;;;;;;5110222;28;20044;-69
2023/08/29 01:27:57;;;;;;;2.90;1.60;;;;;;;;;;5107580;28;20043;-69
2023/08/29 01:30:25;;;;;;;3.22;1.75;;;;;;;;;;5110875;28;20066;-69
2023/08/29 01:32:52;;;;;;;2.63;1.70;;;;;;;;;;5106571;28;20044;-68
2023/08/29 01:35:21;;;;;;;3.75;1.73;;;;;;;;;;5110409;28;20491;-68
2023/08/29 01:37:48;;;;;;;3.50;1.60;;;;;;;;;;5107880;28;20051;-69
2023/08/29 01:40:15;;;;;;;2.50;1.33;;;;;;;;;;5109979;28;20040;-68
2023/08/29 01:42:43;;;;;;;2.25;1.75;;;;;;;;;;5111099;28;20055;-68
2023/08/29 01:45:11;;;;;;;5.25;1.80;;;;;;;;;;5110578;28;20044;-68
2023/08/29 01:47:39;;;;;;;2.20;1.50;;;;;;;;;;5106736;28;20048;-68
2023/08/29 01:50:07;;;;;;;3.40;1.40;;;;;;;;;;5110971;28;20135;-69
2023/08/29 01:52:34;;;;;;;2.00;1.40;;;;;;;;;;5110009;28;21166;-68
2023/08/29 01:55:02;;;;;;;3.08;1.70;;;;;;;;;;5111008;28;20402;-68
2023/08/29 01:57:30;;;;;;;2.20;1.70;;;;;;;;;;5107210;28;20051;-68
2023/08/29 01:59:58;;;;;;;2.38;1.63;;;;;;;;;;5109789;28;20537;-68
2023/08/29 02:02:27;;;;;;;1.70;1.20;;;;;;;;;;5111386;28;20051;-68
2023/08/29 02:04:54;;;;;;;2.70;1.60;;;;;;;;;;5109613;28;20110;-68
2023/08/29 02:07:21;;;;;;;2.30;1.50;;;;;;;;;;5110179;28;20052;-69
2023/08/29 02:09:48;;;;;;;3.85;1.50;;;;;;;;;;5109446;28;20134;-68
2023/08/29 02:12:15;;;;;;;1.77;1.35;;;;;;;;;;5111078;28;20040;-68
2023/08/29 02:14:43;;;;;;;4.88;1.48;;;;;;;;;;5109576;28;20043;-69
2023/08/29 02:17:10;;;;;;;2.22;1.60;;;;;;;;;;5106992;28;20078;-69
2023/08/29 02:19:39;;;;;;;1.90;1.42;;;;;;;;;;5107216;28;20050;-69
2023/08/29 02:22:06;;;;;;;2.30;1.50;;;;;;;;;;5108674;28;20058;-68
2023/08/29 02:24:33;;;;;;;4.60;1.55;;;;;;;;;;5110801;28;20054;-68
2023/08/29 02:27:00;;;;;;;4.15;1.55;;;;;;;;;;5109885;28;20047;-68
2023/08/29 02:29:27;;;;;;;3.50;1.48;;;;;;;;;;5110727;28;20382;-68
2023/08/29 02:31:55;;;;;;;1.73;1.35;;;;;;;;;;5109577;28;20054;-68
2023/08/29 02:34:22;;;;;;;2.53;1.55;;;;;;;;;;5109953;28;20067;-68
2023/08/29 02:36:50;;;;;;;2.53;1.70;;;;;;;;;;5109277;28;20518;-69
2023/08/29 02:39:18;;;;;;;2.35;1.60;;;;;;;;;;5110141;28;20055;-68
2023/08/29 02:41:45;;;;;;;3.65;1.58;;;;;;;;;;5109865;28;20043;-68
2023/08/29 02:44:13;;;;;;;3.22;1.55;;;;;;;;;;5108297;28;20538;-68
2023/08/29 02:46:40;;;;;;;1.67;1.20;;;;;;;;;;5091920;28;20054;-68
2023/08/29 02:49:07;;;;;;;3.67;1.55;;;;;;;;;;5108157;28;20371;-68
2023/08/29 02:51:34;;;;;;;2.00;1.50;;;;;;;;;;5109543;28;20047;-68
2023/08/29 02:54:03;;;;;;;2.00;1.40;;;;;;;;;;5111689;28;21715;-68
2023/08/29 02:56:30;;;;;;;2.08;1.40;;;;;;;;;;5113836;28;20126;-68
2023/08/29 02:58:57;;;;;;;1.90;1.48;;;;;;;;;;5113770;28;20055;-68
2023/08/29 03:01:25;;;;;;;1.98;1.10;;;;;;;;;;5113985;28;20490;-68
2023/08/29 03:03:51;;;;;;;2.53;1.80;;;;;;;;;;5113553;28;20051;-69
2023/08/29 03:06:18;;;;;;;3.05;1.20;;;;;;;;;;5113054;28;20048;-68
2023/08/29 03:08:45;;;;;;;1.65;1.15;;;;;;;;;;5113696;28;20451;-68
2023/08/29 03:11:14;;;;;;;3.50;1.30;;;;;;;;;;5107755;28;20044;-68
2023/08/29 03:13:41;;;;;;;3.10;1.48;;;;;;;;;;5114074;28;20079;-68
2023/08/29 03:16:12;;;;;;;1.73;1.35;;;;;;;;;;5112385;28;20051;-68
2023/08/29 03:18:39;;;;;;;2.83;1.08;;;;;;;;;;5112656;28;20044;-68
2023/08/29 03:21:07;;;;;;;1.73;1.40;;;;;;;;;;5113753;28;20054;-68
2023/08/29 03:23:35;;;;;;;2.33;1.35;;;;;;;;;;5111690;28;20043;-68
2023/08/29 03:26:06;;;;;;;3.72;1.38;;;;;;;;;;5094813;28;20081;-68
2023/08/29 03:28:34;;;;;;;3.35;1.45;;;;;;;;;;5112012;27;20050;-68
2023/08/29 03:31:11;;;;;;;2.72;1.10;;;;;;;;;;5112043;28;20653;-68
2023/08/29 03:33:38;;;;;;;2.45;1.40;;;;;;;;;;5112975;28;20043;-68
2023/08/29 03:36:06;;;;;;;2.00;1.40;;;;;;;;;;5112009;28;20043;-68
2023/08/29 03:38:35;;;;;;;2.47;1.42;;;;;;;;;;5111652;28;20047;-68
2023/08/29 03:41:03;;;;;;;1.98;1.40;;;;;;;;;;5110520;28;20044;-68
2023/08/29 03:43:31;;;;;;;2.60;1.40;;;;;;;;;;5113078;28;20051;-68
2023/08/29 03:46:00;;;;;;;1.90;1.17;;;;;;;;;;5111855;28;20043;-68
2023/08/29 03:48:28;;;;;;;1.88;1.10;;;;;;;;;;5111491;28;20062;-68
2023/08/29 03:50:55;;;;;;;1.30;1.02;;;;;;;;;;5110978;28;20083;-68
2023/08/29 03:53:24;;;;;;;2.40;1.30;;;;;;;;;;5112708;28;20144;-68
2023/08/29 03:55:51;;;;;;;4.38;1.20;;;;;;;;;;5111847;28;20133;-68
2023/08/29 03:58:18;;;;;;;2.53;1.23;;;;;;;;;;5106947;28;20070;-68
2023/08/29 04:00:46;;;;;;;1.98;1.10;;;;;;;;;;5111732;28;20047;-68
2023/08/29 04:03:14;;;;;;;3.67;1.48;;;;;;;;;;5112684;28;20550;-68
2023/08/29 04:05:42;;;;;;;4.07;1.30;;;;;;;;;;5111985;28;20044;-68
2023/08/29 04:08:10;;;;;;;2.05;1.17;;;;;;;;;;5106680;28;20047;-68
2023/08/29 04:10:38;;;;;;;1.85;1.00;;;;;;;;;;5111928;28;20145;-68
2023/08/29 04:13:06;;;;;;;1.80;0.90;;;;;;;;;;5107014;28;20048;-68
2023/08/29 04:15:33;;;;;;;2.25;1.25;;;;;;;;;;5112060;28;20075;-68
2023/08/29 04:18:01;;;;;;;1.50;1.02;;;;;;;;;;5112367;28;20498;-68
2023/08/29 04:20:30;;;;;;;4.53;1.30;;;;;;;;;;5111595;28;20698;-68
2023/08/29 04:22:58;;;;;;;1.55;1.25;;;;;;;;;;5111697;28;20047;-68
2023/08/29 04:25:26;;;;;;;3.65;1.60;;;;;;;;;;5110522;28;20112;-68
2023/08/29 04:27:54;;;;;;;3.30;1.63;;;;;;;;;;5093704;28;20055;-68
2023/08/29 04:30:21;;;;;;;2.65;1.52;;;;;;;;;;5111763;28;20085;-67
2023/08/29 04:32:50;;;;;;;4.03;1.48;;;;;;;;;;5111668;28;20506;-68
2023/08/29 04:35:17;;;;;;;2.30;1.67;;;;;;;;;;5104378;28;20054;-68
2023/08/29 04:37:48;;;;;;;2.03;1.45;;;;;;;;;;5110514;28;20063;-68
2023/08/29 04:40:16;;;;;;;1.98;1.48;;;;;;;;;;5106343;28;20079;-69
2023/08/29 04:42:43;;;;;;;4.03;1.50;;;;;;;;;;5111050;28;20054;-68
2023/08/29 04:45:11;;;;;;;2.55;1.70;;;;;;;;;;5111983;28;20418;-68
2023/08/29 04:47:39;;;;;;;2.55;1.70;;;;;;;;;;5109373;28;20044;-68
2023/08/29 04:50:07;;;;;;;6.65;1.90;;;;;;;;;;5111510;28;20130;-68
2023/08/29 04:52:34;;;;;;;3.88;1.58;;;;;;;;;;5092466;28;20047;-68
2023/08/29 04:55:04;;;;;;;3.70;1.85;;;;;;;;;;5098920;28;20490;-68
2023/08/29 04:57:32;;;;;;;2.08;1.60;;;;;;;;;;5108553;28;20048;-68
2023/08/29 05:00:00;;;;;;;2.70;1.60;;;;;;;;;;5110518;28;20060;-69
2023/08/29 05:02:27;;;;;;;2.50;1.88;;;;;;;;;;5109743;28;20554;-68
2023/08/29 05:04:54;;;;;;;2.85;1.50;;;;;;;;;;5110316;28;20056;-68
2023/08/29 05:07:22;;;;;;;2.35;1.60;;;;;;;;;;5108669;28;20047;-69
2023/08/29 05:09:49;;;;;;;3.88;1.95;;;;;;;;;;5107730;28;20052;-69
2023/08/29 05:12:18;;;;;;;3.38;1.88;;;;;;;;;;5107663;28;20054;-69
2023/08/29 05:14:45;;;;;;;2.95;1.65;;;;;;;;;;5109051;28;20047;-69
2023/08/29 05:17:13;;;;;;;3.05;1.70;;;;;;;;;;5108095;28;20048;-68
2023/08/29 05:19:40;;;;;;;3.42;2.10;;;;;;;;;;5108617;28;20126;-68
2023/08/29 05:22:08;;;;;;;2.25;1.55;;;;;;;;;;5090572;28;20050;-69
2023/08/29 05:24:35;;;;;;;3.55;1.45;;;;;;;;;;5108647;28;20051;-68
2023/08/29 05:27:02;;;;;;;4.25;1.70;;;;;;;;;;5088422;28;20062;-69
2023/08/29 05:29:31;;;;;;;3.15;2.00;;;;;;;;;;5107778;28;20104;-68
2023/08/29 05:31:58;;;;;;;3.08;1.63;;;;;;;;;;5107386;28;20043;-67
2023/08/29 05:34:26;;;;;;;2.35;1.55;;;;;;;;;;5108000;28;20048;-68
2023/08/29 05:36:53;;;;;;;2.25;1.48;;;;;;;;;;5090760;28;20513;-68
2023/08/29 05:39:21;;;;;;;1.83;1.30;;;;;;;;;;5105414;28;20040;-69
2023/08/29 05:41:48;;;;;;;4.07;2.00;;;;;;;;;;5108030;28;20059;-69
2023/08/29 05:44:15;;;;;;;4.35;1.70;;;;;;;;;;5109025;28;20055;-69
2023/08/29 05:46:44;;;;;;;3.83;1.67;;;;;;;;;;5099190;28;20403;-69
2023/08/29 05:49:11;;;;;;;2.15;1.55;;;;;;;;;;5108259;28;20719;-68
2023/08/29 05:51:39;;;;;;;2.67;1.83;;;;;;;;;;5108537;28;20047;-69
2023/08/29 05:54:06;;;;;;;3.60;1.58;;;;;;;;;;5089296;28;20059;-70
2023/08/29 05:56:34;;;;;;;2.42;1.70;;;;;;;;;;5107446;28;20054;-69
2023/08/29 05:59:01;;;;;;;2.55;1.60;;;;;;;;;;5102972;28;20050;-69
2023/08/29 06:01:28;;;;;;;2.20;1.67;;;;;;;;;;5101788;28;20074;-69
2023/08/29 06:03:57;;;;;;;3.55;1.50;;;;;;;;;;5105870;28;20501;-68
2023/08/29 06:06:24;;;;;;;1.83;1.50;;;;;;;;;;5108438;28;20051;-68
2023/08/29 06:08:51;;;;;;;5.25;1.48;;;;;;;;;;5107637;28;20055;-69
2023/08/29 06:11:18;;;;;;;2.75;1.05;;;;;;;;;;5101745;28;20058;-68
2023/08/29 06:13:46;;;;;;;4.25;1.48;;;;;;;;;;5106446;28;20048;-68
2023/08/29 06:16:13;;;;;;;3.30;1.30;;;;;;;;;;5088344;28;20128;-68
2023/08/29 06:18:40;;;;;;;2.58;1.48;;;;;;;;;;5103392;28;20052;-69
2023/08/29 06:21:09;;;;;;;2.42;1.35;;;;;;;;;;5108472;28;20043;-69
2023/08/29 06:23:36;;;;;;;1.60;1.20;;;;;;;;;;5103730;28;20055;-68
2023/08/29 06:26:04;;;;;;;3.25;1.33;;;;;;;;;;5108246;28;20137;-70
2023/08/29 06:28:33;;;;;;;1.88;1.27;;;;;;;;;;5099312;28;20175;-68
2023/08/29 06:31:05;;;;;;;2.03;1.23;;;;;;;;;;5106919;28;20047;-68
2023/08/29 06:33:32;;;;;;;3.05;1.20;;;;;;;;;;5111469;28;20140;-68
2023/08/29 06:36:00;;;;;;;2.50;1.52;;;;;;;;;;5107422;28;20060;-69
2023/08/29 06:38:29;;;;;;;1.88;1.40;;;;;;;;;;5094234;28;20162;-68
2023/08/29 06:40:56;;;;;;;1.85;1.38;;;;;;;;;;5108607;28;20044;-68
2023/08/29 06:43:23;;;;;;;1.80;1.30;;;;;;;;;;5103100;28;20047;-68
2023/08/29 06:45:51;;;;;;;5.97;1.60;;;;;;;;;;5106437;28;20070;-69
2023/08/29 06:48:18;;;;;;;2.03;1.30;;;;;;;;;;5110511;28;20048;-68
2023/08/29 06:50:46;;;;;;;3.08;1.80;;;;;;;;;;5101528;28;20407;-68
2023/08/29 06:53:14;;;;;;;3.40;1.33;;;;;;;;;;5107082;28;20138;-69
2023/08/29 06:55:42;;;;;;;2.85;1.42;;;;;;;;;;5110325;28;20125;-69
2023/08/29 06:58:09;;;;;;;1.85;1.30;;;;;;;;;;5106116;28;20054;-69
2023/08/29 07:00:37;;;;;;;1.45;1.20;;;;;;;;;;5091329;28;20043;-68
2023/08/29 07:03:04;;;;;;;2.20;1.15;;;;;;;;;;5108918;28;20071;-68
2023/08/29 07:05:31;;;;;;;2.05;1.05;;;;;;;;;;5108788;28;20050;-69
2023/08/29 07:07:59;;;;;;;3.63;1.30;;;;;;;;;;5107822;27;20059;-69
2023/08/29 07:10:26;;;;;;;1.73;1.20;;;;;;;;;;5106744;28;20533;-69
2023/08/29 07:12:55;;;;;;;3.15;1.15;;;;;;;;;;5111235;27;20048;-68
2023/08/29 07:15:23;;;;;;;1.60;1.10;;;;;;;;;;5110227;28;20411;-68
2023/08/29 07:17:50;;;;;;;1.50;1.13;;;;;;;;;;5111321;28;20490;-69
2023/08/29 07:20:17;;;;;;;4.00;1.38;;;;;;;;;;5109601;28;20044;-70
2023/08/29 07:22:44;;;;;;;1.13;0.90;;;;;;;;;;5107433;28;20046;-70
2023/08/29 07:25:12;;;;;;;1.23;0.82;;;;;;;;;;5108142;28;20058;-70
2023/08/29 07:27:39;;;;;;;2.38;1.08;;;;;;;;;;5108712;28;20539;-71
2023/08/29 07:30:14;;;;;;;1.70;1.10;;;;;;;;;;5092208;28;20063;-68
2023/08/29 07:32:41;;;;;;;1.42;0.80;;;;;;;;;;5107969;28;20050;-69
2023/08/29 07:35:09;;;;;;;1.40;0.93;;;;;;;;;;5110132;28;20043;-69
2023/08/29 07:37:36;;;;;;;2.15;0.98;;;;;;;;;;5106489;28;20048;-69
2023/08/29 07:40:04;;;;;;;1.98;1.00;;;;;;;;;;5109203;28;20044;-69
2023/08/29 07:42:32;;;;;;;2.88;1.15;;;;;;;;;;5108393;28;20048;-69
2023/08/29 07:45:00;;;;;;;1.95;1.15;;;;;;;;;;5106728;28;20055;-70
2023/08/29 07:47:28;;;;;;;2.72;1.10;;;;;;;;;;5097093;28;20044;-70
2023/08/29 07:49:56;;;;;;;2.22;1.20;;;;;;;;;;5106046;28;20047;-69
2023/08/29 07:52:23;;;;;;;1.20;1.00;;;;;;;;;;5093489;28;20610;-68
2023/08/29 07:54:50;;;;;;;2.85;1.40;;;;;;;;;;5107817;28;21395;-69
2023/08/29 07:57:17;;;;;;;2.25;1.20;;;;;;;;;;5110340;28;20043;-69
2023/08/29 07:59:45;;;;;;;3.83;1.23;;;;;;;;;;5110017;28;20054;-69
2023/08/29 08:02:12;;;;;;;1.17;1.00;;;;;;;;;;5109954;28;20414;-69
2023/08/29 08:04:40;;;;;;;1.80;1.10;;;;;;;;;;5088549;28;21342;-69
2023/08/29 08:07:08;;;;;;;1.95;1.00;;;;;;;;;;5110438;28;20487;-69
2023/08/29 08:09:35;;;;;;;1.40;1.05;;;;;;;;;;5110087;28;20044;-68
2023/08/29 08:12:03;;;;;;;1.30;1.00;;;;;;;;;;5107468;28;20062;-69
2023/08/29 08:14:30;;;;;;;2.05;1.33;;;;;;;;;;5109824;28;20051;-69
2023/08/29 08:16:57;;;;;;;2.92;1.20;;;;;;;;;;5111795;28;20043;-68
2023/08/29 08:19:25;;;;;;;2.20;1.20;;;;;;;;;;5111205;28;20089;-69
2023/08/29 08:21:53;;;;;;;1.75;1.23;;;;;;;;;;5111518;28;20055;-70
2023/08/29 08:24:21;;;;;;;2.03;1.20;;;;;;;;;;5111010;28;20051;-69
2023/08/29 08:26:48;;;;;;;1.55;1.20;;;;;;;;;;5111154;28;20052;-68
2023/08/29 08:29:16;;;;;;;2.28;1.42;;;;;;;;;;5108102;28;20040;-68
2023/08/29 08:31:43;;;;;;;1.70;1.20;;;;;;;;;;5110608;28;20043;-69
2023/08/29 08:34:11;;;;;;;1.75;1.15;;;;;;;;;;5111292;28;20058;-69
2023/08/29 08:36:39;;;;;;;1.85;1.30;;;;;;;;;;5109798;28;20127;-69
2023/08/29 08:39:07;;;;;;;1.50;1.20;;;;;;;;;;5109152;28;20506;-69
2023/08/29 08:41:34;;;;;;;2.10;1.20;;;;;;;;;;5108899;28;20446;-69
2023/08/29 08:44:03;;;;;;;2.22;1.30;;;;;;;;;;5110625;28;20143;-69
2023/08/29 08:46:31;;;;;;;2.15;1.40;;;;;;;;;;5108599;28;20070;-68
2023/08/29 08:48:58;;;;;;;1.42;0.90;;;;;;;;;;5105128;28;20040;-69
2023/08/29 08:51:26;;;;;;;1.02;0.93;;;;;;;;;;5109790;28;20130;-69
2023/08/29 08:53:54;;;;;;;1.27;1.10;;;;;;;;;;5111022;28;20402;-69
2023/08/29 08:56:23;;;;;;;2.65;1.20;;;;;;;;;;5092311;28;20448;-69
2023/08/29 08:58:50;;;;;;;1.65;1.05;;;;;;;;;;5111439;28;20051;-69
2023/08/29 09:01:18;;;;;;;3.63;1.65;;;;;;;;;;5109069;28;20398;-69
2023/08/29 09:03:45;;;;;;;2.15;1.10;;;;;;;;;;5110356;28;20040;-69
2023/08/29 09:06:15;;;;;;;2.00;1.42;;;;;;;;;;5108979;28;20047;-69
2023/08/29 09:08:42;;;;;;;2.63;1.35;;;;;;;;;;5105600;28;20059;-69
2023/08/29 09:11:10;;;;;;;1.83;1.17;;;;;;;;;;5109972;28;20036;-69
2023/08/29 09:13:46;;;;;;;3.03;1.10;;;;;;;;;;5110471;28;20398;-69
2023/08/29 09:16:13;;;;;;;1.55;1.30;;;;;;;;;;5106999;28;20055;-69
2023/08/29 09:18:44;;;;;;;1.85;1.50;;;;;;;;;;5109463;28;20077;-69
2023/08/29 09:21:16;;;;;;;2.47;1.60;;;;;;;;;;5110757;28;20043;-69
2023/08/29 09:23:44;;;;;;;1.88;1.50;;;;;;;;;;5109325;28;20654;-69
2023/08/29 09:26:12;;;;;;;1.55;0.80;;;;;;;;;;5110652;28;20048;-70
2023/08/29 09:28:41;;;;;;;1.10;0.93;;;;;;;;;;5109710;28;20043;-69
2023/08/29 09:31:09;;;;;;;1.88;1.30;;;;;;;;;;5109876;28;20047;-69
2023/08/29 09:33:36;;;;;;;1.85;0.93;;;;;;;;;;5108701;28;20051;-69
2023/08/29 09:36:04;;;;;;;1.10;0.80;;;;;;;;;;5110615;28;20048;-69
2023/08/29 09:38:32;;;;;;;2.33;0.80;;;;;;;;;;5108972;28;20051;-69
2023/08/29 09:41:00;;;;;;;1.17;0.85;;;;;;;;;;5109660;28;20051;-68
2023/08/29 09:43:28;;;;;;;1.30;0.90;;;;;;;;;;5110664;28;20052;-69
2023/08/29 09:45:57;;;;;;;1.48;1.23;;;;;;;;;;5108879;28;20071;-69
2023/08/29 09:48:25;;;;;;;1.75;1.08;;;;;;;;;;5111811;28;20051;-69
2023/08/29 09:50:52;;;;;;;1.20;0.90;;;;;;;;;;5108872;28;20043;-68
2023/08/29 09:53:20;;;;;;;2.05;0.85;;;;;;;;;;5110169;28;20043;-69
2023/08/29 09:55:49;;;;;;;1.58;0.88;;;;;;;;;;5109657;28;20070;-68
2023/08/29 09:58:17;;;;;;;1.45;1.00;;;;;;;;;;5109646;28;20048;-69
2023/08/29 10:00:45;;;;;;;3.75;1.10;;;;;;;;;;5109366;28;20123;-69
2023/08/29 10:03:13;;;;;;;2.05;1.15;;;;;;;;;;5114659;28;20391;-69
2023/08/29 10:05:41;;;;;;;1.25;1.13;;;;;;;;;;5113885;28;20490;-68
2023/08/29 10:08:17;;;;;;;1.90;1.10;;;;;;;;;;5104510;28;20040;-68
2023/08/29 10:10:44;;;;;;;3.20;1.17;;;;;;;;;;5097725;28;20051;-68
2023/08/29 10:13:12;;;;;;;1.42;0.95;;;;;;;;;;5114780;28;20047;-68
2023/08/29 10:15:41;;;;;;;1.05;0.70;;;;;;;;;;5113393;28;20059;-68
2023/08/29 10:18:09;;;;;;;3.33;0.80;;;;;;;;;;5114347;28;20047;-69
2023/08/29 10:20:39;;;;;;;1.33;0.90;;;;;;;;;;5113404;28;20043;-68
2023/08/29 10:23:08;;;;;;;1.23;0.88;;;;;;;;;;5107374;28;20047;-68
2023/08/29 10:25:38;;;;;;;1.52;1.05;;;;;;;;;;5113790;28;20054;-68
2023/08/29 10:28:06;;;;;;;1.08;0.98;;;;;;;;;;5111914;28;20147;-69
2023/08/29 10:30:34;;;;;;;4.20;1.00;;;;;;;;;;5113697;28;20050;-68
2023/08/29 10:33:02;;;;;;;1.70;0.98;;;;;;;;;;5095080;28;20823;-68
2023/08/29 10:35:32;;;;;;;1.90;1.02;;;;;;;;;;5114014;28;20514;-68
2023/08/29 10:38:03;;;;;;;1.42;0.88;;;;;;;;;;5113477;28;20490;-68
2023/08/29 10:40:34;;;;;;;1.92;1.10;;;;;;;;;;5113729;28;20047;-69
2023/08/29 10:43:02;;;;;;;1.45;0.70;;;;;;;;;;5112965;28;20057;-69
2023/08/29 10:45:47;;;;;;;1.70;0.70;;;;;;;;;;5113712;28;20134;-68
2023/08/29 10:48:17;;;;;;;1.50;0.85;;;;;;;;;;5079122;28;20052;-68
2023/08/29 10:50:47;;;;;;;3.13;1.00;;;;;;;;;;5072368;28;20044;-69
2023/08/29 10:53:19;;;;;;;1.40;1.20;;;;;;;;;;5072635;28;20098;-68
2023/08/29 10:55:59;;;;;;;1.35;1.00;;;;;;;;;;5068190;28;20489;-69
2023/08/29 10:58:36;;;;;;;1.95;1.08;;;;;;;;;;5073223;28;20045;-68
2023/08/29 11:01:04;;;;;;;1.50;0.95;;;;;;;;;;5072242;28;20128;-68
2023/08/29 11:03:42;;;;;;;2.67;0.93;;;;;;;;;;5070507;28;20056;-68
2023/08/29 11:06:09;;;;;;;1.60;1.00;;;;;;;;;;5072227;28;20052;-68
2023/08/29 11:08:38;;;;;;;2.42;1.15;;;;;;;;;;5072028;28;21224;-68
2023/08/29 11:11:15;;;;;;;3.70;1.30;;;;;;;;;;5071824;28;20128;-68
2023/08/29 11:13:59;;;;;;;1.35;1.10;;;;;;;;;;5071738;28;20044;-68
2023/08/29 11:16:26;;;;;;;1.25;1.00;;;;;;;;;;5070009;28;20058;-68
2023/08/29 11:19:00;;;;;;;2.88;1.02;;;;;;;;;;5069331;28;20052;-68
2023/08/29 11:21:30;;;;;;;2.38;1.30;;;;;;;;;;5072258;28;20045;-68
2023/08/29 11:23:59;;;;;;;3.28;1.02;;;;;;;;;;5071244;28;20460;-68
2023/08/29 11:26:27;;;;;;;1.83;0.93;;;;;;;;;;5071333;28;20044;-68
2023/08/29 11:28:54;;;;;;;2.92;1.10;;;;;;;;;;5064860;28;20049;-68
2023/08/29 11:31:21;;;;;;;1.48;1.02;;;;;;;;;;5071803;28;20535;-67
2023/08/29 11:33:48;;;;;;;2.70;1.30;;;;;;;;;;5067180;28;20055;-68
2023/08/29 11:36:16;;;;;;;1.45;1.02;;;;;;;;;;5069732;28;20058;-68
2023/08/29 11:38:44;;;;;;;1.30;1.10;;;;;;;;;;5072169;28;20056;-68
2023/08/29 11:41:14;;;;;;;2.20;1.30;;;;;;;;;;5070820;28;20049;-68
2023/08/29 11:43:42;;;;;;;1.52;1.13;;;;;;;;;;5071949;28;20056;-68
2023/08/29 11:46:09;;;;;;;2.08;1.00;;;;;;;;;;5070832;28;20532;-68
2023/08/29 11:48:36;;;;;;;1.95;1.10;;;;;;;;;;5097834;27;20048;-68
2023/08/29 11:51:04;;;;;;;1.48;0.95;;;;;;;;;;5110492;28;20482;-68
2023/08/29 11:53:32;;;;;;;1.65;1.10;;;;;;;;;;5111759;28;20060;-69
2023/08/29 11:56:00;;;;;;;2.42;1.00;;;;;;;;;;5110964;28;20051;-68
2023/08/29 11:58:32;;;;;;;1.38;0.90;;;;;;;;;;5111960;28;20505;-68
2023/08/29 12:00:59;;;;;;;2.03;1.00;;;;;;;;;;5110510;28;20456;-68
2023/08/29 12:03:27;;;;;;;1.35;0.93;;;;;;;;;;5111854;28;20517;-68
2023/08/29 12:05:57;;;;;;;2.47;1.20;;;;;;;;;;5109451;28;20047;-68
2023/08/29 12:08:38;;;;;;;2.72;1.10;;;;;;;;;;5111960;28;20059;-68
2023/08/29 12:11:07;;;;;;;2.70;0.93;;;;;;;;;;5104938;28;20046;-69
2023/08/29 12:13:36;;;;;;;1.55;1.13;;;;;;;;;;5107171;28;20476;-68
2023/08/29 12:16:04;;;;;;;1.77;1.00;;;;;;;;;;5108960;28;20126;-69
2023/08/29 12:18:33;;;;;;;1.27;0.90;;;;;;;;;;5106677;28;20054;-69
2023/08/29 12:21:11;;;;;;;1.35;1.00;;;;;;;;;;5109694;28;20052;-69
2023/08/29 12:23:38;;;;;;;3.55;1.20;;;;;;;;;;5107962;28;20043;-69
2023/08/29 12:26:05;;;;;;;1.48;1.00;;;;;;;;;;5110580;28;20040;-69
2023/08/29 12:28:33;;;;;;;1.60;1.00;;;;;;;;;;5108903;28;20058;-68
2023/08/29 12:31:01;;;;;;;2.60;1.20;;;;;;;;;;5110437;28;20406;-69
2023/08/29 12:33:29;;;;;;;1.98;1.15;;;;;;;;;;5090403;28;20478;-69
2023/08/29 12:35:58;;;;;;;2.67;0.90;;;;;;;;;;5104210;28;20087;-68
2023/08/29 12:38:26;;;;;;;2.03;1.23;;;;;;;;;;5106813;28;20532;-68
2023/08/29 12:40:54;;;;;;;1.95;1.30;;;;;;;;;;5105424;28;20494;-68
2023/08/29 12:43:21;;;;;;;3.08;1.60;;;;;;;;;;5107601;28;20436;-69
2023/08/29 12:45:48;;;;;;;3.13;1.40;;;;;;;;;;5082690;28;20059;-68
2023/08/29 12:48:20;;;;;;;1.63;1.17;;;;;;;;;;5084590;28;20056;-68
2023/08/29 12:50:47;;;;;;;1.83;1.30;;;;;;;;;;5082892;28;20056;-68
2023/08/29 12:53:14;;;;;;;2.67;1.40;;;;;;;;;;5088203;28;20048;-68
2023/08/29 12:55:42;;;;;;;2.00;0.95;;;;;;;;;;5083839;28;20471;-68
2023/08/29 12:58:09;;;;;;;1.98;1.17;;;;;;;;;;5085209;28;20059;-68
2023/08/29 13:00:38;;;;;;;1.48;1.10;;;;;;;;;;5087531;28;20048;-68
2023/08/29 13:03:05;;;;;;;1.58;1.10;;;;;;;;;;5085436;28;20039;-69
2023/08/29 13:05:34;;;;;;;1.70;1.20;;;;;;;;;;5086752;28;20055;-68
2023/08/29 13:08:02;;;;;;;1.83;1.20;;;;;;;;;;5084521;28;20102;-68
2023/08/29 13:10:30;;;;;;;2.83;1.20;;;;;;;;;;5088184;28;20048;-68
2023/08/29 13:12:58;;;;;;;1.30;1.00;;;;;;;;;;5081962;28;20092;-68
2023/08/29 13:15:26;;;;;;;2.55;1.25;;;;;;;;;;5085171;28;20044;-68
2023/08/29 13:17:54;;;;;;;2.55;1.23;;;;;;;;;;5085756;28;20063;-68
2023/08/29 13:20:21;;;;;;;2.60;1.33;;;;;;;;;;5084743;28;20044;-68
2023/08/29 13:22:50;;;;;;;2.90;1.10;;;;;;;;;;5088113;28;20040;-68
2023/08/29 13:25:19;;;;;;;1.65;1.25;;;;;;;;;;5085841;28;20062;-69
2023/08/29 13:27:48;;;;;;;2.58;1.30;;;;;;;;;;5089621;28;20048;-69
2023/08/29 13:30:15;;;;;;;1.77;1.48;;;;;;;;;;5085975;28;20487;-68
2023/08/29 13:32:43;;;;;;;1.70;1.40;;;;;;;;;;5088467;28;20509;-68
2023/08/29 13:35:11;;;;;;;4.22;1.30;;;;;;;;;;5086220;28;20047;-68
2023/08/29 13:37:38;;;;;;;2.05;1.20;;;;;;;;;;5087454;28;20417;-68
2023/08/29 13:40:08;;;;;;;2.08;1.10;;;;;;;;;;5081034;28;20044;-68
2023/08/29 13:42:35;;;;;;;1.92;1.17;;;;;;;;;;5086939;28;20092;-68
2023/08/29 13:45:04;;;;;;;1.98;1.17;;;;;;;;;;5088982;28;20139;-68
2023/08/29 13:47:32;;;;;;;1.50;1.00;;;;;;;;;;5086031;28;20495;-68
2023/08/29 13:50:00;;;;;;;1.00;0.90;;;;;;;;;;5086505;28;20051;-68
2023/08/29 13:52:27;;;;;;;2.28;1.25;;;;;;;;;;5088269;28;20403;-68
2023/08/29 13:54:54;;;;;;;2.10;1.45;;;;;;;;;;5083349;28;20624;-68
2023/08/29 13:57:23;;;;;;;1.98;1.23;;;;;;;;;;5083277;28;20040;-68
2023/08/29 13:59:50;;;;;;;1.77;1.30;;;;;;;;;;5086113;28;20165;-69
2023/08/29 14:02:17;;;;;;;1.80;1.35;;;;;;;;;;5082875;28;20132;-69
2023/08/29 14:04:44;;;;;;;2.53;1.17;;;;;;;;;;5083076;28;20056;-68
2023/08/29 14:07:12;;;;;;;1.77;1.30;;;;;;;;;;5088859;28;20044;-70
2023/08/29 14:09:39;;;;;;;1.45;1.00;;;;;;;;;;5088550;28;20490;-68
2023/08/29 14:12:07;;;;;;;1.67;1.10;;;;;;;;;;5089170;28;20051;-69
2023/08/29 14:14:36;;;;;;;3.40;0.98;;;;;;;;;;5088987;28;20044;-69
2023/08/29 14:17:03;;;;;;;1.75;0.95;;;;;;;;;;5088707;28;20406;-68
2023/08/29 14:19:30;;;;;;;3.92;1.30;;;;;;;;;;5088671;28;20050;-68
2023/08/29 14:21:58;;;;;;;1.95;1.00;;;;;;;;;;5086250;28;20048;-69
2023/08/29 14:24:25;;;;;;;1.90;1.00;;;;;;;;;;5088707;28;20050;-69
2023/08/29 14:26:52;;;;;;;1.98;0.98;;;;;;;;;;5087171;28;20056;-70
2023/08/29 14:29:19;;;;;;;1.83;1.20;;;;;;;;;;5085821;28;20048;-70
2023/08/29 14:31:48;;;;;;;2.13;1.10;;;;;;;;;;5086114;28;20049;-68
2023/08/29 14:34:15;;;;;;;2.15;1.50;;;;;;;;;;5089503;28;20526;-68
2023/08/29 14:36:43;;;;;;;1.67;1.23;;;;;;;;;;5087696;28;20449;-69
2023/08/29 14:39:10;;;;;;;1.65;1.10;;;;;;;;;;5089117;28;20146;-69
2023/08/29 14:41:37;;;;;;;2.08;1.13;;;;;;;;;;5087997;28;20487;-68
2023/08/29 14:44:05;;;;;;;1.25;1.00;;;;;;;;;;5088336;28;20052;-67
2023/08/29 14:46:32;;;;;;;1.85;1.17;;;;;;;;;;5087981;28;20289;-70
2023/08/29 14:49:01;;;;;;;1.30;1.10;;;;;;;;;;5104497;28;20063;-69